createdAt,value
2022-09-18T00:00:56.319Z,19.44
2022-09-18T00:04:24.271Z,19.80
2022-09-18T00:07:48.320Z,18.83
2022-09-18T00:11:11.296Z,18.69
2022-09-18T00:14:37.339Z,20.07
2022-09-18T00:18:00.265Z,18.39
2022-09-18T00:21:32.330Z,18.39
2022-09-18T00:24:56.269Z,18.65
2022-09-18T00:28:21.298Z,18.74
2022-09-18T00:31:50.297Z,18.74
2022-09-18T00:35:14.309Z,18.13
2022-09-18T00:38:40.301Z,19.41
2022-09-18T00:42:03.333Z,18.83
2022-09-18T00:45:27.305Z,18.33
2022-09-18T00:49:00.356Z,18.63
2022-09-18T00:52:25.260Z,18.26
2022-09-18T00:55:51.305Z,19.54
2022-09-18T00:59:15.311Z,19.59
2022-09-18T01:02:40.310Z,19.10
2022-09-18T01:06:28.316Z,19.55
2022-09-18T01:10:06.364Z,18.88
2022-09-18T01:13:33.316Z,17.80
2022-09-18T01:17:28.350Z,20.17
2022-09-18T01:21:16.375Z,18.20
2022-09-18T01:25:13.383Z,18.39
2022-09-18T01:28:42.324Z,18.19
2022-09-18T01:32:30.372Z,18.71
2022-09-18T01:35:51.335Z,20.63
2022-09-18T01:39:38.294Z,20.64
2022-09-18T01:43:03.374Z,19.89
2022-09-18T01:46:30.339Z,19.37
2022-09-18T01:50:01.369Z,21.01
2022-09-18T01:53:34.365Z,20.99
2022-09-18T01:57:05.368Z,20.91
2022-09-18T02:00:23.399Z,19.38
2022-09-18T02:03:46.343Z,18.57
2022-09-18T02:07:22.359Z,19.57
2022-09-18T02:10:50.340Z,20.04
2022-09-18T02:14:18.369Z,20.79
2022-09-18T02:18:14.373Z,21.16
2022-09-18T02:21:43.363Z,19.87
2022-09-18T02:25:09.377Z,21.22
2022-09-18T02:28:36.363Z,19.96
2022-09-18T02:32:00.386Z,21.70
2022-09-18T02:35:25.467Z,21.57
2022-09-18T02:39:03.481Z,21.50
2022-09-18T02:42:39.463Z,20.66
2022-09-18T02:46:25.439Z,19.32
2022-09-18T02:50:09.368Z,19.90
2022-09-18T02:54:07.402Z,19.61
2022-09-18T02:58:04.486Z,20.64
2022-09-18T03:01:31.443Z,20.86
2022-09-18T03:04:56.335Z,21.70
2022-09-18T03:08:41.501Z,20.40
2022-09-18T03:12:05.347Z,20.54
2022-09-18T03:15:35.423Z,20.31
2022-09-18T03:18:59.433Z,20.67
2022-09-18T03:22:23.445Z,20.84
2022-09-18T03:25:47.391Z,20.13
2022-09-18T03:29:11.447Z,20.71
2022-09-18T03:32:35.409Z,20.02
2022-09-18T03:36:01.384Z,20.15
2022-09-18T03:39:25.396Z,20.49
2022-09-18T03:42:50.464Z,19.49
2022-09-18T03:46:14.450Z,19.55
2022-09-18T03:49:39.529Z,20.15
2022-09-18T03:53:04.400Z,20.31
2022-09-18T03:56:37.470Z,20.54
2022-09-18T04:00:15.479Z,20.38
2022-09-18T04:03:45.546Z,19.97
2022-09-18T04:07:28.429Z,19.97
2022-09-18T04:11:12.416Z,19.75
2022-09-18T04:14:36.473Z,19.13
2022-09-18T04:17:59.605Z,19.33
2022-09-18T04:21:24.398Z,19.87
2022-09-18T04:24:47.503Z,19.71
2022-09-18T04:28:13.485Z,19.47
2022-09-18T04:31:37.491Z,19.09
2022-09-18T04:35:05.423Z,18.80
2022-09-18T04:38:35.462Z,19.49
2022-09-18T04:42:00.394Z,19.05
2022-09-18T04:45:25.414Z,18.19
2022-09-18T04:48:49.478Z,18.49
2022-09-18T04:52:16.408Z,18.02
2022-09-18T04:55:39.424Z,17.69
2022-09-18T04:59:04.424Z,17.76
2022-09-18T05:02:34.471Z,18.02
2022-09-18T05:06:00.458Z,17.68
2022-09-18T05:09:25.436Z,17.17
2022-09-18T05:12:49.408Z,17.08
2022-09-18T05:16:12.514Z,16.90
2022-09-18T05:19:51.465Z,17.27
2022-09-18T05:23:16.462Z,16.88
2022-09-18T05:26:40.417Z,16.42
2022-09-18T05:30:04.416Z,16.66
2022-09-18T05:33:44.434Z,16.52
2022-09-18T05:37:07.457Z,16.28
2022-09-18T05:40:34.538Z,16.06
2022-09-18T05:44:01.470Z,15.95
2022-09-18T05:47:26.445Z,15.79
2022-09-18T05:50:51.450Z,15.86
2022-09-18T05:54:18.498Z,15.75
2022-09-18T05:57:42.458Z,15.68
2022-09-18T06:01:09.503Z,15.81
2022-09-18T06:04:59.453Z,15.49
2022-09-18T06:08:25.495Z,15.52
2022-09-18T06:11:50.433Z,15.23
2022-09-18T06:15:13.465Z,15.18
2022-09-18T06:18:38.452Z,15.23
2022-09-18T06:22:01.428Z,15.12
2022-09-18T06:25:29.495Z,15.08
2022-09-18T06:28:54.470Z,15.11
2022-09-18T06:32:24.442Z,15.18
2022-09-18T06:35:50.419Z,15.09
2022-09-18T06:39:24.503Z,15.06
2022-09-18T06:42:49.501Z,14.87
2022-09-18T06:46:45.545Z,14.88
2022-09-18T06:50:17.506Z,14.74
2022-09-18T06:53:41.477Z,14.58
2022-09-18T06:57:05.454Z,14.75
2022-09-18T07:00:29.515Z,14.61
2022-09-18T07:03:54.469Z,14.40
2022-09-18T07:07:25.462Z,14.47
2022-09-18T07:10:50.505Z,14.44
2022-09-18T07:14:15.478Z,14.45
2022-09-18T07:17:43.473Z,14.39
2022-09-18T07:21:07.491Z,14.37
2022-09-18T07:24:35.512Z,14.17
2022-09-18T07:27:52.513Z,14.14
2022-09-18T07:31:19.498Z,14.29
2022-09-18T07:34:45.527Z,14.22
2022-09-18T07:38:15.494Z,14.04
2022-09-18T07:41:43.519Z,13.78
2022-09-18T07:45:08.452Z,13.87
2022-09-18T07:48:32.536Z,13.62
2022-09-18T07:52:04.506Z,13.63
2022-09-18T07:55:37.468Z,13.42
2022-09-18T07:59:01.462Z,13.31
2022-09-18T08:02:27.648Z,13.27
2022-09-18T08:05:50.505Z,13.24
2022-09-18T08:09:14.491Z,13.17
2022-09-18T08:12:56.461Z,13.21
2022-09-18T08:16:51.505Z,13.00
2022-09-18T08:20:31.633Z,12.83
2022-09-18T08:24:17.661Z,12.89
2022-09-18T08:27:42.544Z,12.74
2022-09-18T08:31:08.620Z,12.70
2022-09-18T08:34:33.541Z,12.68
2022-09-18T08:38:03.469Z,12.60
2022-09-18T08:41:42.547Z,12.69
2022-09-18T08:45:14.547Z,12.48
2022-09-18T08:48:45.509Z,12.43
2022-09-18T08:52:33.553Z,12.26
2022-09-18T08:56:16.495Z,12.05
2022-09-18T09:00:11.551Z,12.07
2022-09-18T09:03:40.530Z,11.99
2022-09-18T09:07:17.507Z,11.96
2022-09-18T09:10:38.098Z,11.93
2022-09-18T09:14:05.502Z,11.88
2022-09-18T09:17:36.484Z,11.72
2022-09-18T09:21:09.934Z,11.65
2022-09-18T09:24:48.527Z,11.47
2022-09-18T09:28:56.517Z,11.38
2022-09-18T09:32:45.528Z,11.41
2022-09-18T09:36:30.526Z,11.47
2022-09-18T09:39:58.551Z,11.42
2022-09-18T09:43:40.577Z,11.39
2022-09-18T09:47:43.533Z,11.32
2022-09-18T09:51:12.518Z,11.29
2022-09-18T09:54:36.564Z,11.24
2022-09-18T09:58:28.563Z,11.25
2022-09-18T10:02:04.661Z,11.18
2022-09-18T10:05:58.532Z,11.18
2022-09-18T10:09:25.507Z,11.06
2022-09-18T10:13:10.565Z,10.96
2022-09-18T10:16:41.597Z,10.95
2022-09-18T10:20:07.522Z,10.99
2022-09-18T10:23:41.546Z,10.95
2022-09-18T10:27:28.537Z,11.04
2022-09-18T10:31:09.651Z,10.98
2022-09-18T10:35:03.586Z,10.90
2022-09-18T10:38:47.506Z,10.97
2022-09-18T10:42:20.576Z,11.08
2022-09-18T10:45:55.508Z,11.13
2022-09-18T10:49:45.544Z,11.05
2022-09-18T10:53:11.572Z,11.10
2022-09-18T10:56:36.585Z,11.06
2022-09-18T11:00:00.608Z,11.13
2022-09-18T11:03:31.571Z,11.14
2022-09-18T11:06:59.602Z,11.13
2022-09-18T11:10:23.507Z,11.08
2022-09-18T11:13:52.606Z,11.07
2022-09-18T11:17:20.569Z,11.13
2022-09-18T11:20:47.712Z,11.19
2022-09-18T11:24:21.529Z,11.29
2022-09-18T11:28:07.555Z,11.22
2022-09-18T11:31:34.609Z,11.14
2022-09-18T11:35:09.568Z,11.13
2022-09-18T11:38:33.553Z,11.09
2022-09-18T11:41:59.601Z,11.10
2022-09-18T11:46:07.575Z,11.14
2022-09-18T11:50:04.576Z,11.09
2022-09-18T11:54:03.613Z,11.06
2022-09-18T11:57:55.554Z,11.10
2022-09-18T12:01:57.681Z,11.05
2022-09-18T12:05:37.596Z,11.03
2022-09-18T12:09:23.212Z,10.96
2022-09-18T12:12:58.255Z,11.04
2022-09-18T12:16:27.907Z,11.06
2022-09-18T12:19:57.201Z,11.07
2022-09-18T12:23:36.246Z,11.05
2022-09-18T12:27:28.197Z,11.05
2022-09-18T12:31:11.245Z,11.04
2022-09-18T12:34:43.196Z,11.04
2022-09-18T12:38:29.178Z,10.99
2022-09-18T12:42:02.850Z,11.10
2022-09-18T12:45:38.937Z,11.04
2022-09-18T12:49:17.866Z,11.09
2022-09-18T12:53:23.955Z,11.03
2022-09-18T12:56:53.843Z,11.16
2022-09-18T13:00:29.908Z,11.21
2022-09-18T13:03:55.876Z,11.19
2022-09-18T13:07:24.854Z,11.16
2022-09-18T13:10:53.857Z,11.13
2022-09-18T13:15:01.848Z,11.05
2022-09-18T13:18:55.203Z,11.00
2022-09-18T13:22:24.620Z,10.94
2022-09-18T13:25:51.582Z,10.97
2022-09-18T13:29:16.571Z,10.91
2022-09-18T13:32:46.583Z,10.87
2022-09-18T13:36:11.551Z,10.85
2022-09-18T13:40:06.547Z,10.89
2022-09-18T13:43:44.591Z,10.80
2022-09-18T13:47:23.602Z,10.72
2022-09-18T13:50:51.589Z,10.70
2022-09-18T13:54:37.594Z,10.74
2022-09-18T13:58:00.629Z,10.73
2022-09-18T14:01:25.578Z,10.70
2022-09-18T14:04:57.613Z,10.64
2022-09-18T14:08:25.552Z,10.70
2022-09-18T14:11:49.614Z,10.65
2022-09-18T14:15:20.591Z,10.54
2022-09-18T14:18:46.576Z,10.62
2022-09-18T14:22:10.594Z,10.55
2022-09-18T14:25:58.616Z,10.57
2022-09-18T14:29:25.590Z,10.63
2022-09-18T14:32:49.612Z,10.63
2022-09-18T14:36:20.561Z,10.56
2022-09-18T14:39:50.610Z,10.56
2022-09-18T14:43:14.598Z,10.74
2022-09-18T14:46:40.572Z,10.79
2022-09-18T14:50:03.601Z,10.95
2022-09-18T14:53:38.622Z,10.96
2022-09-18T14:57:04.564Z,10.99
2022-09-18T15:00:33.690Z,11.07
2022-09-18T15:04:03.698Z,10.98
2022-09-18T15:07:35.568Z,10.94
2022-09-18T15:11:02.637Z,10.91
2022-09-18T15:14:50.571Z,10.95
2022-09-18T15:18:14.596Z,10.94
2022-09-18T15:21:35.266Z,10.94
2022-09-18T15:24:52.648Z,10.94
2022-09-18T15:28:18.631Z,10.87
2022-09-18T15:31:41.710Z,10.97
2022-09-18T15:35:06.641Z,11.02
2022-09-18T15:38:34.613Z,11.07
2022-09-18T15:42:00.647Z,11.13
2022-09-18T15:45:30.637Z,11.17
2022-09-18T15:48:58.653Z,11.19
2022-09-18T15:52:51.696Z,11.26
2022-09-18T15:56:17.601Z,11.30
2022-09-18T15:59:46.649Z,11.36
2022-09-18T16:03:17.653Z,11.35
2022-09-18T16:06:43.671Z,11.36
2022-09-18T16:10:07.686Z,11.42
2022-09-18T16:13:31.659Z,11.49
2022-09-18T16:16:55.696Z,11.50
2022-09-18T16:20:39.613Z,11.43
2022-09-18T16:24:06.674Z,11.34
2022-09-18T16:27:31.631Z,11.33
2022-09-18T16:30:56.643Z,11.35
2022-09-18T16:34:37.680Z,11.39
2022-09-18T16:38:02.645Z,11.32
2022-09-18T16:41:26.663Z,11.32
2022-09-18T16:44:50.703Z,11.32
2022-09-18T16:48:14.683Z,11.23
2022-09-18T16:51:38.711Z,11.28
2022-09-18T16:55:02.665Z,11.29
2022-09-18T16:58:26.654Z,11.40
2022-09-18T17:02:03.754Z,11.34
2022-09-18T17:05:28.662Z,11.35
2022-09-18T17:08:52.623Z,11.38
2022-09-18T17:12:15.714Z,11.34
2022-09-18T17:15:39.626Z,11.36
2022-09-18T17:19:02.852Z,11.35
2022-09-18T17:22:26.670Z,11.29
2022-09-18T17:25:49.718Z,11.31
2022-09-18T17:29:14.672Z,11.36
2022-09-18T17:32:38.715Z,11.37
2022-09-18T17:36:03.666Z,11.43
2022-09-18T17:39:27.727Z,11.34
2022-09-18T17:42:54.629Z,11.31
2022-09-18T17:46:21.747Z,11.39
2022-09-18T17:49:48.702Z,11.50
2022-09-18T17:53:12.667Z,11.49
2022-09-18T17:56:39.667Z,11.54
2022-09-18T18:00:03.667Z,11.59
2022-09-18T18:03:30.694Z,11.56
2022-09-18T18:06:54.681Z,11.43
2022-09-18T18:10:18.659Z,11.45
2022-09-18T18:13:42.686Z,11.46
2022-09-18T18:17:08.652Z,11.36
2022-09-18T18:20:33.729Z,11.40
2022-09-18T18:23:57.710Z,11.42
2022-09-18T18:27:21.687Z,11.51
2022-09-18T18:30:45.708Z,11.56
2022-09-18T18:34:10.842Z,11.60
2022-09-18T18:37:35.711Z,11.62
2022-09-18T18:40:59.686Z,11.62
2022-09-18T18:44:24.714Z,11.66
2022-09-18T18:47:56.678Z,11.67
2022-09-18T18:51:22.705Z,11.69
2022-09-18T18:54:46.793Z,11.72
2022-09-18T18:58:12.675Z,11.74
2022-09-18T19:01:36.816Z,11.77
2022-09-18T19:05:10.721Z,11.81
2022-09-18T19:08:35.764Z,11.92
2022-09-18T19:12:00.715Z,11.87
2022-09-18T19:15:24.706Z,11.96
2022-09-18T19:18:48.754Z,11.94
2022-09-18T19:22:12.832Z,12.10
2022-09-18T19:25:38.764Z,12.18
2022-09-18T19:29:07.763Z,12.14
2022-09-18T19:32:31.796Z,12.30
2022-09-18T19:35:55.761Z,12.19
2022-09-18T19:39:21.715Z,12.38
2022-09-18T19:42:44.848Z,12.42
2022-09-18T19:46:08.719Z,12.35
2022-09-18T19:49:34.844Z,12.47
2022-09-18T19:52:58.748Z,12.50
2022-09-18T19:56:41.988Z,12.65
2022-09-18T20:00:07.784Z,12.61
2022-09-18T20:03:31.788Z,12.69
2022-09-18T20:06:55.788Z,12.79
2022-09-18T20:10:21.857Z,12.88
2022-09-18T20:13:45.760Z,13.01
2022-09-18T20:17:10.750Z,13.05
2022-09-18T20:20:34.740Z,13.10
2022-09-18T20:23:58.775Z,13.03
2022-09-18T20:27:23.752Z,13.07
2022-09-18T20:30:47.772Z,12.80
2022-09-18T20:34:13.755Z,12.79
2022-09-18T20:37:40.799Z,12.98
2022-09-18T20:41:19.753Z,12.88
2022-09-18T20:44:43.744Z,12.99
2022-09-18T20:48:10.753Z,13.18
2022-09-18T20:51:34.840Z,13.40
2022-09-18T20:55:00.753Z,13.39
2022-09-18T20:58:24.774Z,13.43
2022-09-18T21:01:49.786Z,13.58
2022-09-18T21:05:15.795Z,13.47
2022-09-18T21:08:39.713Z,13.58
2022-09-18T21:12:06.796Z,13.58
2022-09-18T21:15:30.884Z,13.58
2022-09-18T21:18:55.737Z,13.65
2022-09-18T21:22:20.777Z,13.82
2022-09-18T21:25:45.774Z,13.89
2022-09-18T21:29:14.839Z,13.99
2022-09-18T21:32:38.746Z,13.99
2022-09-18T21:36:07.793Z,14.04
2022-09-18T21:39:31.735Z,14.14
2022-09-18T21:42:55.840Z,14.15
2022-09-18T21:46:19.804Z,14.45
2022-09-18T21:49:43.801Z,14.67
2022-09-18T21:53:06.739Z,14.73
2022-09-18T21:56:33.803Z,14.73
2022-09-18T21:59:57.783Z,14.84
2022-09-18T22:03:28.804Z,14.80
2022-09-18T22:07:11.775Z,14.81
2022-09-18T22:10:34.743Z,14.86
2022-09-18T22:14:00.807Z,14.85
2022-09-18T22:17:25.751Z,14.90
2022-09-18T22:20:52.822Z,15.00
2022-09-18T22:24:29.746Z,15.18
2022-09-18T22:27:54.825Z,15.38
2022-09-18T22:31:13.424Z,15.72
2022-09-18T22:34:34.803Z,16.25
2022-09-18T22:37:57.762Z,16.48
2022-09-18T22:41:22.829Z,16.84
2022-09-18T22:44:46.804Z,17.10
2022-09-18T22:48:10.766Z,17.31
2022-09-18T22:51:36.811Z,17.10
2022-09-18T22:55:01.834Z,17.46
2022-09-18T22:58:24.811Z,17.18
2022-09-18T23:01:53.829Z,17.04
2022-09-18T23:05:18.762Z,17.10
2022-09-18T23:08:42.844Z,16.92
2022-09-18T23:12:06.773Z,16.90
2022-09-18T23:15:30.812Z,16.96
2022-09-18T23:18:54.808Z,16.91
2022-09-18T23:22:19.867Z,17.04
2022-09-18T23:25:43.810Z,17.32
2022-09-18T23:29:08.852Z,17.47
2022-09-18T23:32:27.362Z,17.64
2022-09-18T23:35:44.823Z,17.76
2022-09-18T23:39:09.774Z,17.92
2022-09-18T23:42:33.814Z,17.91
2022-09-18T23:45:58.813Z,17.83
2022-09-18T23:49:24.012Z,17.80
2022-09-18T23:52:47.818Z,17.75
2022-09-18T23:56:19.856Z,17.96
2022-09-18T23:59:43.859Z,17.95
